Squeak Carpenter — WDA2979 — position and weather

sailwx.info

Track history (hours):
 
Tides and Currents Weather Stations Pressure Air Temp Water Temp Dewpoint Dewpoint Depression Visibility Wind Speed Wind Dir Waves Ship Positions

Squeak Carpenter

Owner: Blessey Enterprises, Inc., HARAHAN, LA. More information available from US FCC via Universal Licensing System and Coast Guard Vessel Documentation Center.

Last reported at 2018-Jun-20 01:46 UTC. Time now 2018-Jun-20 16:42 UTC.
Position N 29°44' W 095°08'.

Length 15 m.

Type: Towing. MMSI: 366793340.

Date/timePositionNaut miles runAvg speedWind from/ knotsBaromVisibWave heightAir tempDewpointWater temp
2018-Jun-20 01:46N 29°44' W 095°08'  
2018-Jun-17 16:37N 29°44' W 095°02'1 6.5
2018-Jun-17 16:30N 29°43' W 095°01'3 6.3
2018-Jun-17 15:58N 29°41' W 094°59'4 6.8
2018-Jun-17 15:24N 29°37' W 094°57'26 2.2
2018-Jun-17 03:24N 29°15' W 095°13'0 0.0
2018-Jun-17 03:00N 29°15' W 095°13'0 0.0
2018-Jun-17 02:30N 29°15' W 095°13'0 0.0
2018-Jun-17 02:00N 29°15' W 095°13'0 0.0
2018-Jun-17 01:30N 29°15' W 095°13'0 0.0
2018-Jun-17 01:00N 29°15' W 095°13'0 0.0
2018-Jun-17 00:30N 29°15' W 095°13'0 0.0
2018-Jun-17 00:00N 29°15' W 095°13'0 0.2
2018-Jun-16 23:30N 29°15' W 095°13'0 0.0
2018-Jun-16 22:59N 29°15' W 095°13'0 0.0
2018-Jun-16 22:30N 29°15' W 095°13'2 4.3
2018-Jun-16 22:00N 29°13' W 095°12'3 6.3
2018-Jun-16 21:30N 29°11' W 095°09'2 4.7
2018-Jun-16 21:00N 29°10' W 095°06'0 0.2
2018-Jun-16 20:30N 29°10' W 095°06'0 0.0
2018-Jun-16 20:00N 29°10' W 095°06'2 4.3
2018-Jun-16 19:30N 29°12' W 095°04'3 6.3
2018-Jun-16 19:00N 29°14' W 095°02'3 6.6
2018-Jun-16 18:30N 29°16' W 094°59'3 6.8
2018-Jun-16 18:00N 29°17' W 094°55'3 6.1
2018-Jun-16 17:30N 29°19' W 094°52'3 6.6
2018-Jun-16 16:59N 29°21' W 094°49'3 5.1
2018-Jun-16 16:30N 29°23' W 094°49'20 6.1
2018-Jun-16 13:13N 29°41' W 094°59'0 0.1
2018-Jun-16 09:21N 29°42' W 094°59'2 6.0
2018-Jun-16 08:58N 29°40' W 094°58'3 6.7
2018-Jun-16 08:29N 29°36' W 094°57'11 6.5
2018-Jun-16 06:45N 29°27' W 094°50'2 6.4
2018-Jun-16 06:30N 29°25' W 094°50'3 5.8
2018-Jun-16 06:00N 29°23' W 094°48'2 4.9
2018-Jun-16 05:30N 29°21' W 094°50'4 7.4
2018-Jun-16 05:00N 29°18' W 094°53'3 6.1
2018-Jun-16 04:30N 29°17' W 094°56'3 6.6
2018-Jun-16 04:00N 29°16' W 094°60'3 6.6
2018-Jun-16 03:30N 29°13' W 095°02'3 6.0
2018-Jun-16 03:00N 29°11' W 095°05'3 5.9
2018-Jun-16 02:30N 29°10' W 095°08'3 5.9
2018-Jun-16 02:00N 29°12' W 095°10'3 6.1
2018-Jun-16 01:30N 29°13' W 095°13'1 2.5
2018-Jun-16 01:00N 29°15' W 095°13'0 0.1
2018-Jun-16 00:30N 29°15' W 095°13'0 0.0
2018-Jun-16 00:00N 29°15' W 095°13'0 0.0
2018-Jun-15 23:30N 29°15' W 095°13'0 0.0
2018-Jun-15 23:00N 29°15' W 095°13'0 0.0
2018-Jun-15 22:30N 29°15' W 095°13'0 0.0
2018-Jun-15 22:00N 29°15' W 095°13'0 0.0
2018-Jun-15 21:30N 29°15' W 095°13'0 0.0
2018-Jun-15 21:00N 29°15' W 095°13'0 0.0
2018-Jun-15 20:30N 29°15' W 095°13'0 0.0
2018-Jun-15 20:00N 29°15' W 095°13'0 0.0
2018-Jun-15 19:30N 29°15' W 095°13'0 0.0
2018-Jun-15 19:00N 29°15' W 095°13'0 0.0
2018-Jun-15 18:29N 29°15' W 095°13'0 0.0
2018-Jun-15 18:00N 29°15' W 095°13'0 0.0
2018-Jun-15 17:30N 29°15' W 095°13'0 0.0
2018-Jun-15 17:00N 29°15' W 095°13'0 0.0
2018-Jun-15 16:30N 29°15' W 095°13'0 0.0
2018-Jun-15 16:00N 29°15' W 095°13'0 0.0
2018-Jun-15 14:52N 29°15' W 095°13'0 0.1
2018-Jun-15 14:30N 29°15' W 095°13'2 3.5
2018-Jun-15 14:00N 29°13' W 095°13'0 0.0
2018-Jun-15 13:30N 29°13' W 095°13'2 3.4
2018-Jun-15 13:00N 29°15' W 095°13'0 0.1
2018-Jun-15 12:30N 29°15' W 095°13'0 0.0
2018-Jun-15 12:00N 29°15' W 095°13'0 0.0
2018-Jun-15 11:30N 29°15' W 095°13'0 0.0
2018-Jun-15 11:00N 29°15' W 095°13'0 0.0
2018-Jun-15 10:30N 29°15' W 095°13'0 0.0
2018-Jun-15 10:00N 29°15' W 095°13'0 0.0
2018-Jun-15 09:30N 29°15' W 095°13'0 0.0
2018-Jun-15 09:00N 29°15' W 095°13'0 0.1
2018-Jun-15 08:30N 29°15' W 095°13'1 1.0
2018-Jun-15 08:00N 29°14' W 095°13'0 0.0
2018-Jun-15 07:30N 29°14' W 095°13'0 0.0
2018-Jun-15 07:00N 29°14' W 095°13'0 0.0
2018-Jun-15 06:30N 29°14' W 095°13'0 0.0
2018-Jun-15 06:00N 29°14' W 095°13'0 0.0
2018-Jun-15 05:30N 29°14' W 095°13'0 0.0
2018-Jun-15 05:00N 29°14' W 095°13'0 0.0
2018-Jun-15 04:30N 29°14' W 095°13'0 0.0
2018-Jun-15 04:00N 29°14' W 095°13'0 0.0
2018-Jun-15 03:30N 29°14' W 095°13'0 0.0
2018-Jun-15 03:00N 29°14' W 095°13'0 0.0
2018-Jun-15 02:30N 29°14' W 095°13'0 0.0
2018-Jun-15 02:00N 29°14' W 095°13'0 0.0
2018-Jun-15 01:30N 29°14' W 095°13'0 0.0
2018-Jun-15 01:00N 29°14' W 095°13'0 0.0
2018-Jun-15 00:30N 29°14' W 095°13'0 0.0
2018-Jun-15 00:00N 29°14' W 095°13'0 0.0
2018-Jun-14 23:30N 29°14' W 095°13'0 0.0
2018-Jun-14 23:00N 29°14' W 095°13'0 0.0
2018-Jun-14 22:30N 29°14' W 095°13'0 0.6
2018-Jun-14 22:00N 29°14' W 095°13'1 2.3
2018-Jun-14 21:30N 29°13' W 095°13'3 5.3
2018-Jun-14 21:00N 29°12' W 095°10'3 5.0
2018-Jun-14 20:30N 29°10' W 095°08'2 3.1
2018-Jun-14 20:00N 29°10' W 095°06'2 4.3
2018-Jun-14 19:30N 29°12' W 095°04'3 5.7
2018-Jun-14 19:00N 29°13' W 095°02'3 5.7
2018-Jun-14 18:30N 29°16' W 094°60'3 5.7
2018-Jun-14 18:00N 29°17' W 094°57'3 5.9
2018-Jun-14 17:30N 29°17' W 094°53'24 5.1
2018-Jun-14 12:52N 29°31' W 094°31'2 5.5
2018-Jun-14 12:30N 29°32' W 094°29'1 1.8
2018-Jun-14 12:00N 29°32' W 094°29'1 1.8
2018-Jun-14 11:30N 29°33' W 094°28'3 5.3
2018-Jun-14 10:59N 29°34' W 094°25'2 4.3
2018-Jun-14 10:28N 29°36' W 094°23'2 3.3
2018-Jun-14 10:00N 29°36' W 094°22'2 4.9
2018-Jun-14 09:30N 29°38' W 094°19'2 5.0
2018-Jun-14 09:00N 29°39' W 094°17'3 5.8
2018-Jun-14 08:30N 29°40' W 094°14'3 5.9
2018-Jun-14 08:00N 29°41' W 094°11'2 4.1
2018-Jun-14 07:30N 29°42' W 094°08'3 5.9
2018-Jun-14 07:00N 29°44' W 094°06'3 5.8
2018-Jun-14 06:30N 29°46' W 094°03'3 5.7
2018-Jun-14 06:00N 29°48' W 094°01'3 5.2
2018-Jun-14 05:30N 29°49' W 093°58'3 5.8
2018-Jun-14 05:00N 29°52' W 093°56'4 7.9
2018-Jun-14 04:30N 29°55' W 093°54'4 7.5
2018-Jun-14 04:00N 29°58' W 093°51'3 6.2
2018-Jun-14 03:30N 29°59' W 093°48'4 7.0
2018-Jun-14 03:00N 30°01' W 093°45'3 6.1
2018-Jun-14 02:29N 30°03' W 093°42'3 6.2
2018-Jun-14 02:00N 30°04' W 093°39'3 5.9
2018-Jun-14 01:28N 30°04' W 093°35'3 5.6
2018-Jun-14 00:59N 30°04' W 093°32'3 5.4
2018-Jun-14 00:30N 30°04' W 093°29'3 5.2
2018-Jun-14 00:00N 30°04' W 093°26'2 4.1
2018-Jun-13 23:30N 30°04' W 093°24'2 4.7
2018-Jun-13 23:00N 30°04' W 093°21'3 5.1
2018-Jun-13 22:30N 30°06' W 093°19'1 2.7
2018-Jun-13 22:00N 30°05' W 093°18'1 2.4
2018-Jun-13 21:30N 30°05' W 093°17'0 0.0
2018-Jun-13 21:00N 30°05' W 093°17'0 0.0
2018-Jun-13 20:30N 30°05' W 093°17'0 0.0
2018-Jun-13 20:00N 30°05' W 093°17'0 0.0
2018-Jun-13 19:30N 30°05' W 093°17'0 0.0
2018-Jun-13 19:00N 30°05' W 093°17'0 0.0
2018-Jun-13 18:30N 30°05' W 093°17'0 0.0
2018-Jun-13 18:00N 30°05' W 093°17'0 0.0
2018-Jun-13 17:29N 30°05' W 093°17'0 0.0
2018-Jun-13 17:00N 30°05' W 093°17'0 0.0
2018-Jun-13 16:30N 30°05' W 093°17'0 0.0
2018-Jun-13 16:00N 30°05' W 093°17'0 0.0
2018-Jun-13 15:30N 30°05' W 093°17'0 0.0
2018-Jun-13 15:00N 30°05' W 093°17'0 0.0
2018-Jun-13 14:30N 30°05' W 093°17'0 0.0
2018-Jun-13 14:00N 30°05' W 093°17'0 0.0
2018-Jun-13 13:30N 30°05' W 093°17'0 0.0
2018-Jun-13 12:59N 30°05' W 093°17'0 0.0
2018-Jun-13 12:30N 30°05' W 093°17'0 0.0
2018-Jun-13 12:00N 30°05' W 093°17'0 0.0
2018-Jun-13 11:30N 30°05' W 093°17'0 0.0
2018-Jun-13 11:00N 30°05' W 093°17'0 0.0
2018-Jun-13 10:30N 30°05' W 093°17'0 0.0
2018-Jun-13 10:00N 30°05' W 093°17'0 0.0
2018-Jun-13 09:30N 30°05' W 093°17'0 0.0
2018-Jun-13 09:00N 30°05' W 093°17'0 0.0
2018-Jun-13 08:30N 30°05' W 093°17'0 0.0
2018-Jun-13 08:00N 30°05' W 093°17'0 0.0
2018-Jun-13 07:30N 30°05' W 093°17'0 0.0
2018-Jun-13 07:00N 30°05' W 093°17'0 0.0
2018-Jun-13 06:30N 30°05' W 093°17'0 0.2
2018-Jun-13 06:00N 30°04' W 093°16'2 3.2
2018-Jun-13 05:30N 30°03' W 093°16'2 4.8
2018-Jun-13 05:00N 30°01' W 093°14'2 4.3
2018-Jun-13 04:30N 29°59' W 093°13'0 0.0
2018-Jun-13 04:00N 29°59' W 093°13'0 0.0
2018-Jun-13 03:30N 29°59' W 093°13'0 0.0
2018-Jun-13 03:00N 29°59' W 093°13'0 0.0
2018-Jun-13 02:30N 29°59' W 093°13'0 0.0
2018-Jun-13 02:00N 29°59' W 093°13'0 0.0
2018-Jun-13 01:30N 29°59' W 093°13'0 0.0
2018-Jun-13 01:00N 29°59' W 093°13'0 0.0
2018-Jun-13 00:29N 29°59' W 093°13'0 0.0
2018-Jun-13 00:00N 29°59' W 093°13'0 0.0
2018-Jun-12 23:30N 29°59' W 093°13'0 0.0
2018-Jun-12 23:00N 29°59' W 093°13'0 0.0
2018-Jun-12 22:30N 29°59' W 093°13'0 0.0
2018-Jun-12 22:00N 29°59' W 093°13'1 1.9
2018-Jun-12 21:30N 29°59' W 093°12'3 5.2
2018-Jun-12 21:00N 29°57' W 093°10'2 4.8
2018-Jun-12 20:30N 29°56' W 093°07'35 4.9
2018-Jun-12 13:21N 29°54' W 092°27'2 5.2
2018-Jun-12 13:00N 29°53' W 092°25'3 4.8
2018-Jun-12 12:17N 29°51' W 092°22'1 5.2
2018-Jun-12 12:00N 29°51' W 092°20'2 4.9
2018-Jun-12 11:30N 29°49' W 092°18'3 5.2
2018-Jun-12 11:00N 29°48' W 092°15'2 4.9
2018-Jun-12 10:30N 29°47' W 092°12'0 0.5
2018-Jun-12 10:00N 29°47' W 092°12'1 1.8
2018-Jun-12 09:30N 29°47' W 092°11'0 0.5
2018-Jun-12 09:00N 29°47' W 092°11'0 0.9
2018-Jun-12 08:30N 29°47' W 092°10'2 4.4
2018-Jun-12 08:00N 29°47' W 092°08'2 4.1
2018-Jun-12 07:29N 29°48' W 092°06'2 4.6
2018-Jun-12 06:57N 29°49' W 092°03'  
Track history (hours):
 
Tides and Currents Weather Stations Pressure Air Temp Water Temp Dewpoint Dewpoint Depression Visibility Wind Speed Wind Dir Waves Ship Positions

Squeak Carpenter

Owner: Blessey Enterprises, Inc., HARAHAN, LA. More information available from US FCC via Universal Licensing System and Coast Guard Vessel Documentation Center.

Last reported at 2018-Jun-20 01:46 UTC. Time now 2018-Jun-20 16:42 UTC.
Position N 29°44' W 095°08'.

Length 15 m.

Type: Towing. MMSI: 366793340.

Date/timePositionNaut miles runAvg speedWind from/ knotsBaromVisibWave heightAir tempDewpointWater temp
2018-Jun-20 01:46N 29°44' W 095°08'  
2018-Jun-17 16:37N 29°44' W 095°02'1 6.5
2018-Jun-17 16:30N 29°43' W 095°01'3 6.3
2018-Jun-17 15:58N 29°41' W 094°59'4 6.8
2018-Jun-17 15:24N 29°37' W 094°57'26 2.2
2018-Jun-17 03:24N 29°15' W 095°13'0 0.0
2018-Jun-17 03:00N 29°15' W 095°13'0 0.0
2018-Jun-17 02:30N 29°15' W 095°13'0 0.0
2018-Jun-17 02:00N 29°15' W 095°13'0 0.0
2018-Jun-17 01:30N 29°15' W 095°13'0 0.0
2018-Jun-17 01:00N 29°15' W 095°13'0 0.0
2018-Jun-17 00:30N 29°15' W 095°13'0 0.0
2018-Jun-17 00:00N 29°15' W 095°13'0 0.2
2018-Jun-16 23:30N 29°15' W 095°13'0 0.0
2018-Jun-16 22:59N 29°15' W 095°13'0 0.0
2018-Jun-16 22:30N 29°15' W 095°13'2 4.3
2018-Jun-16 22:00N 29°13' W 095°12'3 6.3
2018-Jun-16 21:30N 29°11' W 095°09'2 4.7
2018-Jun-16 21:00N 29°10' W 095°06'0 0.2
2018-Jun-16 20:30N 29°10' W 095°06'0 0.0
2018-Jun-16 20:00N 29°10' W 095°06'2 4.3
2018-Jun-16 19:30N 29°12' W 095°04'3 6.3
2018-Jun-16 19:00N 29°14' W 095°02'3 6.6
2018-Jun-16 18:30N 29°16' W 094°59'3 6.8
2018-Jun-16 18:00N 29°17' W 094°55'3 6.1
2018-Jun-16 17:30N 29°19' W 094°52'3 6.6
2018-Jun-16 16:59N 29°21' W 094°49'3 5.1
2018-Jun-16 16:30N 29°23' W 094°49'20 6.1
2018-Jun-16 13:13N 29°41' W 094°59'0 0.1
2018-Jun-16 09:21N 29°42' W 094°59'2 6.0
2018-Jun-16 08:58N 29°40' W 094°58'3 6.7
2018-Jun-16 08:29N 29°36' W 094°57'11 6.5
2018-Jun-16 06:45N 29°27' W 094°50'2 6.4
2018-Jun-16 06:30N 29°25' W 094°50'3 5.8
2018-Jun-16 06:00N 29°23' W 094°48'2 4.9
2018-Jun-16 05:30N 29°21' W 094°50'4 7.4
2018-Jun-16 05:00N 29°18' W 094°53'3 6.1
2018-Jun-16 04:30N 29°17' W 094°56'3 6.6
2018-Jun-16 04:00N 29°16' W 094°60'3 6.6
2018-Jun-16 03:30N 29°13' W 095°02'3 6.0
2018-Jun-16 03:00N 29°11' W 095°05'3 5.9
2018-Jun-16 02:30N 29°10' W 095°08'3 5.9
2018-Jun-16 02:00N 29°12' W 095°10'3 6.1
2018-Jun-16 01:30N 29°13' W 095°13'1 2.5
2018-Jun-16 01:00N 29°15' W 095°13'0 0.1
2018-Jun-16 00:30N 29°15' W 095°13'0 0.0
2018-Jun-16 00:00N 29°15' W 095°13'0 0.0
2018-Jun-15 23:30N 29°15' W 095°13'0 0.0
2018-Jun-15 23:00N 29°15' W 095°13'0 0.0
2018-Jun-15 22:30N 29°15' W 095°13'0 0.0
2018-Jun-15 22:00N 29°15' W 095°13'0 0.0
2018-Jun-15 21:30N 29°15' W 095°13'0 0.0
2018-Jun-15 21:00N 29°15' W 095°13'0 0.0
2018-Jun-15 20:30N 29°15' W 095°13'0 0.0
2018-Jun-15 20:00N 29°15' W 095°13'0 0.0
2018-Jun-15 19:30N 29°15' W 095°13'0 0.0
2018-Jun-15 19:00N 29°15' W 095°13'0 0.0
2018-Jun-15 18:29N 29°15' W 095°13'0 0.0
2018-Jun-15 18:00N 29°15' W 095°13'0 0.0
2018-Jun-15 17:30N 29°15' W 095°13'0 0.0
2018-Jun-15 17:00N 29°15' W 095°13'0 0.0
2018-Jun-15 16:30N 29°15' W 095°13'0 0.0
2018-Jun-15 16:00N 29°15' W 095°13'0 0.0
2018-Jun-15 14:52N 29°15' W 095°13'0 0.1
2018-Jun-15 14:30N 29°15' W 095°13'2 3.5
2018-Jun-15 14:00N 29°13' W 095°13'0 0.0
2018-Jun-15 13:30N 29°13' W 095°13'2 3.4
2018-Jun-15 13:00N 29°15' W 095°13'0 0.1
2018-Jun-15 12:30N 29°15' W 095°13'0 0.0
2018-Jun-15 12:00N 29°15' W 095°13'0 0.0
2018-Jun-15 11:30N 29°15' W 095°13'0 0.0
2018-Jun-15 11:00N 29°15' W 095°13'0 0.0
2018-Jun-15 10:30N 29°15' W 095°13'0 0.0
2018-Jun-15 10:00N 29°15' W 095°13'0 0.0
2018-Jun-15 09:30N 29°15' W 095°13'0 0.0
2018-Jun-15 09:00N 29°15' W 095°13'0 0.1
2018-Jun-15 08:30N 29°15' W 095°13'1 1.0
2018-Jun-15 08:00N 29°14' W 095°13'0 0.0
2018-Jun-15 07:30N 29°14' W 095°13'0 0.0
2018-Jun-15 07:00N 29°14' W 095°13'0 0.0
2018-Jun-15 06:30N 29°14' W 095°13'0 0.0
2018-Jun-15 06:00N 29°14' W 095°13'0 0.0
2018-Jun-15 05:30N 29°14' W 095°13'0 0.0
2018-Jun-15 05:00N 29°14' W 095°13'0 0.0
2018-Jun-15 04:30N 29°14' W 095°13'0 0.0
2018-Jun-15 04:00N 29°14' W 095°13'0 0.0
2018-Jun-15 03:30N 29°14' W 095°13'0 0.0
2018-Jun-15 03:00N 29°14' W 095°13'0 0.0
2018-Jun-15 02:30N 29°14' W 095°13'0 0.0
2018-Jun-15 02:00N 29°14' W 095°13'0 0.0
2018-Jun-15 01:30N 29°14' W 095°13'0 0.0
2018-Jun-15 01:00N 29°14' W 095°13'0 0.0
2018-Jun-15 00:30N 29°14' W 095°13'0 0.0
2018-Jun-15 00:00N 29°14' W 095°13'0 0.0
2018-Jun-14 23:30N 29°14' W 095°13'0 0.0
2018-Jun-14 23:00N 29°14' W 095°13'0 0.0
2018-Jun-14 22:30N 29°14' W 095°13'0 0.6
2018-Jun-14 22:00N 29°14' W 095°13'1 2.3
2018-Jun-14 21:30N 29°13' W 095°13'3 5.3
2018-Jun-14 21:00N 29°12' W 095°10'3 5.0
2018-Jun-14 20:30N 29°10' W 095°08'2 3.1
2018-Jun-14 20:00N 29°10' W 095°06'2 4.3
2018-Jun-14 19:30N 29°12' W 095°04'3 5.7
2018-Jun-14 19:00N 29°13' W 095°02'3 5.7
2018-Jun-14 18:30N 29°16' W 094°60'3 5.7
2018-Jun-14 18:00N 29°17' W 094°57'3 5.9
2018-Jun-14 17:30N 29°17' W 094°53'24 5.1
2018-Jun-14 12:52N 29°31' W 094°31'2 5.5
2018-Jun-14 12:30N 29°32' W 094°29'1 1.8
2018-Jun-14 12:00N 29°32' W 094°29'1 1.8
2018-Jun-14 11:30N 29°33' W 094°28'3 5.3
2018-Jun-14 10:59N 29°34' W 094°25'2 4.3
2018-Jun-14 10:28N 29°36' W 094°23'2 3.3
2018-Jun-14 10:00N 29°36' W 094°22'2 4.9
2018-Jun-14 09:30N 29°38' W 094°19'2 5.0
2018-Jun-14 09:00N 29°39' W 094°17'3 5.8
2018-Jun-14 08:30N 29°40' W 094°14'3 5.9
2018-Jun-14 08:00N 29°41' W 094°11'2 4.1
2018-Jun-14 07:30N 29°42' W 094°08'3 5.9
2018-Jun-14 07:00N 29°44' W 094°06'3 5.8
2018-Jun-14 06:30N 29°46' W 094°03'3 5.7
2018-Jun-14 06:00N 29°48' W 094°01'3 5.2
2018-Jun-14 05:30N 29°49' W 093°58'3 5.8
2018-Jun-14 05:00N 29°52' W 093°56'4 7.9
2018-Jun-14 04:30N 29°55' W 093°54'4 7.5
2018-Jun-14 04:00N 29°58' W 093°51'3 6.2
2018-Jun-14 03:30N 29°59' W 093°48'4 7.0
2018-Jun-14 03:00N 30°01' W 093°45'3 6.1
2018-Jun-14 02:29N 30°03' W 093°42'3 6.2
2018-Jun-14 02:00N 30°04' W 093°39'3 5.9
2018-Jun-14 01:28N 30°04' W 093°35'3 5.6
2018-Jun-14 00:59N 30°04' W 093°32'3 5.4
2018-Jun-14 00:30N 30°04' W 093°29'3 5.2
2018-Jun-14 00:00N 30°04' W 093°26'2 4.1
2018-Jun-13 23:30N 30°04' W 093°24'2 4.7
2018-Jun-13 23:00N 30°04' W 093°21'3 5.1
2018-Jun-13 22:30N 30°06' W 093°19'1 2.7
2018-Jun-13 22:00N 30°05' W 093°18'1 2.4
2018-Jun-13 21:30N 30°05' W 093°17'0 0.0
2018-Jun-13 21:00N 30°05' W 093°17'0 0.0
2018-Jun-13 20:30N 30°05' W 093°17'0 0.0
2018-Jun-13 20:00N 30°05' W 093°17'0 0.0
2018-Jun-13 19:30N 30°05' W 093°17'0 0.0
2018-Jun-13 19:00N 30°05' W 093°17'0 0.0
2018-Jun-13 18:30N 30°05' W 093°17'0 0.0
2018-Jun-13 18:00N 30°05' W 093°17'0 0.0
2018-Jun-13 17:29N 30°05' W 093°17'0 0.0
2018-Jun-13 17:00N 30°05' W 093°17'0 0.0
2018-Jun-13 16:30N 30°05' W 093°17'0 0.0
2018-Jun-13 16:00N 30°05' W 093°17'0 0.0
2018-Jun-13 15:30N 30°05' W 093°17'0 0.0
2018-Jun-13 15:00N 30°05' W 093°17'0 0.0
2018-Jun-13 14:30N 30°05' W 093°17'0 0.0
2018-Jun-13 14:00N 30°05' W 093°17'0 0.0
2018-Jun-13 13:30N 30°05' W 093°17'0 0.0
2018-Jun-13 12:59N 30°05' W 093°17'0 0.0
2018-Jun-13 12:30N 30°05' W 093°17'0 0.0
2018-Jun-13 12:00N 30°05' W 093°17'0 0.0
2018-Jun-13 11:30N 30°05' W 093°17'0 0.0
2018-Jun-13 11:00N 30°05' W 093°17'0 0.0
2018-Jun-13 10:30N 30°05' W 093°17'0 0.0
2018-Jun-13 10:00N 30°05' W 093°17'0 0.0
2018-Jun-13 09:30N 30°05' W 093°17'0 0.0
2018-Jun-13 09:00N 30°05' W 093°17'0 0.0
2018-Jun-13 08:30N 30°05' W 093°17'0 0.0
2018-Jun-13 08:00N 30°05' W 093°17'0 0.0
2018-Jun-13 07:30N 30°05' W 093°17'0 0.0
2018-Jun-13 07:00N 30°05' W 093°17'0 0.0
2018-Jun-13 06:30N 30°05' W 093°17'0 0.2
2018-Jun-13 06:00N 30°04' W 093°16'2 3.2
2018-Jun-13 05:30N 30°03' W 093°16'2 4.8
2018-Jun-13 05:00N 30°01' W 093°14'2 4.3
2018-Jun-13 04:30N 29°59' W 093°13'0 0.0
2018-Jun-13 04:00N 29°59' W 093°13'0 0.0
2018-Jun-13 03:30N 29°59' W 093°13'0 0.0
2018-Jun-13 03:00N 29°59' W 093°13'0 0.0
2018-Jun-13 02:30N 29°59' W 093°13'0 0.0
2018-Jun-13 02:00N 29°59' W 093°13'0 0.0
2018-Jun-13 01:30N 29°59' W 093°13'0 0.0
2018-Jun-13 01:00N 29°59' W 093°13'0 0.0
2018-Jun-13 00:29N 29°59' W 093°13'0 0.0
2018-Jun-13 00:00N 29°59' W 093°13'0 0.0
2018-Jun-12 23:30N 29°59' W 093°13'0 0.0
2018-Jun-12 23:00N 29°59' W 093°13'0 0.0
2018-Jun-12 22:30N 29°59' W 093°13'0 0.0
2018-Jun-12 22:00N 29°59' W 093°13'1 1.9
2018-Jun-12 21:30N 29°59' W 093°12'3 5.2
2018-Jun-12 21:00N 29°57' W 093°10'2 4.8
2018-Jun-12 20:30N 29°56' W 093°07'35 4.9
2018-Jun-12 13:21N 29°54' W 092°27'2 5.2
2018-Jun-12 13:00N 29°53' W 092°25'3 4.8
2018-Jun-12 12:17N 29°51' W 092°22'1 5.2
2018-Jun-12 12:00N 29°51' W 092°20'2 4.9
2018-Jun-12 11:30N 29°49' W 092°18'3 5.2
2018-Jun-12 11:00N 29°48' W 092°15'2 4.9
2018-Jun-12 10:30N 29°47' W 092°12'0 0.5
2018-Jun-12 10:00N 29°47' W 092°12'1 1.8
2018-Jun-12 09:30N 29°47' W 092°11'0 0.5
2018-Jun-12 09:00N 29°47' W 092°11'0 0.9
2018-Jun-12 08:30N 29°47' W 092°10'2 4.4
2018-Jun-12 08:00N 29°47' W 092°08'2 4.1
2018-Jun-12 07:29N 29°48' W 092°06'2 4.6
2018-Jun-12 06:57N 29°49' W 092°03'  

Dump ship's entire track history